createdAt,value
2022-12-14T00:00:20.696Z,7.43
2022-12-14T00:02:46.920Z,7.55
2022-12-14T00:05:13.123Z,7.93
2022-12-14T00:07:39.224Z,7.57
2022-12-14T00:10:05.351Z,7.75
2022-12-14T00:12:31.448Z,8.05
2022-12-14T00:14:57.571Z,7.30
2022-12-14T00:17:23.675Z,7.80
2022-12-14T00:19:49.794Z,8.02
2022-12-14T00:22:15.949Z,7.65
2022-12-14T00:24:42.067Z,7.40
2022-12-14T00:27:08.206Z,8.02
2022-12-14T00:29:34.320Z,7.28
2022-12-14T00:32:00.419Z,7.95
2022-12-14T00:34:26.556Z,7.75
2022-12-14T00:36:52.662Z,8.02
2022-12-14T00:39:18.771Z,7.95
2022-12-14T00:41:44.872Z,6.95
2022-12-14T00:44:10.983Z,7.43
2022-12-14T00:46:37.153Z,7.47
2022-12-14T00:49:03.322Z,7.63
2022-12-14T00:51:29.427Z,7.65
2022-12-14T00:53:55.538Z,7.63
2022-12-14T00:56:21.671Z,8.02
2022-12-14T00:58:47.775Z,6.88
2022-12-14T01:01:14.038Z,7.75
2022-12-14T01:03:40.318Z,7.88
2022-12-14T01:06:06.550Z,8.40
2022-12-14T01:08:32.652Z,7.68
2022-12-14T01:10:58.768Z,7.50
2022-12-14T01:13:25.142Z,8.15
2022-12-14T01:15:51.641Z,8.25
2022-12-14T01:18:17.768Z,8.00
2022-12-14T01:20:43.887Z,7.60
2022-12-14T01:23:10.009Z,8.32
2022-12-14T01:25:36.143Z,8.25
2022-12-14T01:28:02.256Z,8.35
2022-12-14T01:30:28.372Z,7.22
2022-12-14T01:32:54.542Z,7.63
2022-12-14T01:35:20.649Z,7.82
2022-12-14T01:37:49.102Z,8.32
2022-12-14T01:40:15.356Z,7.63
2022-12-14T01:42:41.487Z,8.45
2022-12-14T01:45:07.582Z,8.00
2022-12-14T01:47:33.709Z,7.97
2022-12-14T01:49:59.808Z,7.72
2022-12-14T01:52:25.924Z,8.52
2022-12-14T01:54:52.025Z,7.80
2022-12-14T01:57:19.581Z,8.02
2022-12-14T01:59:45.701Z,8.98
2022-12-14T02:02:12.009Z,8.07
2022-12-14T02:04:38.222Z,7.97
2022-12-14T02:07:04.330Z,7.90
2022-12-14T02:09:30.509Z,8.75
2022-12-14T02:11:56.837Z,8.35
2022-12-14T02:14:22.948Z,8.73
2022-12-14T02:16:49.045Z,8.90
2022-12-14T02:19:15.151Z,8.30
2022-12-14T02:21:41.281Z,8.40
2022-12-14T02:24:07.406Z,9.02
2022-12-14T02:26:33.516Z,8.10
2022-12-14T02:28:59.631Z,8.73
2022-12-14T02:31:25.828Z,8.95
2022-12-14T02:33:51.971Z,8.73
2022-12-14T02:36:18.133Z,8.73
2022-12-14T02:38:44.283Z,8.73
2022-12-14T02:41:10.391Z,7.82
2022-12-14T02:43:36.497Z,8.68
2022-12-14T02:46:02.628Z,8.65
2022-12-14T02:48:28.762Z,8.48
2022-12-14T02:50:54.881Z,8.70
2022-12-14T02:53:21.056Z,8.10
2022-12-14T02:55:47.192Z,8.48
2022-12-14T02:58:13.350Z,9.18
2022-12-14T03:00:39.524Z,8.90
2022-12-14T03:03:05.840Z,8.95
2022-12-14T03:05:32.191Z,9.52
2022-12-14T03:07:58.309Z,8.55
2022-12-14T03:10:24.447Z,8.57
2022-12-14T03:12:50.584Z,9.07
2022-12-14T03:15:16.726Z,8.70
2022-12-14T03:17:42.867Z,9.23
2022-12-14T03:20:15.125Z,8.23
2022-12-14T03:22:41.241Z,8.63
2022-12-14T03:25:07.424Z,8.75
2022-12-14T03:27:33.542Z,8.50
2022-12-14T03:29:59.669Z,8.65
2022-12-14T03:32:25.802Z,8.20
2022-12-14T03:34:51.928Z,8.77
2022-12-14T03:37:18.031Z,8.65
2022-12-14T03:39:44.141Z,9.43
2022-12-14T03:42:10.250Z,8.90
2022-12-14T03:44:41.901Z,9.23
2022-12-14T03:47:15.851Z,9.13
2022-12-14T03:49:41.994Z,8.70
2022-12-14T03:52:08.111Z,8.20
2022-12-14T03:54:34.238Z,8.63
2022-12-14T03:57:00.367Z,8.77
2022-12-14T03:59:26.545Z,9.07
2022-12-14T04:01:52.869Z,9.50
2022-12-14T04:04:19.084Z,9.75
2022-12-14T04:06:45.248Z,9.70
2022-12-14T04:09:11.354Z,9.13
2022-12-14T04:11:37.470Z,8.60
2022-12-14T04:14:03.578Z,8.93
2022-12-14T04:16:29.736Z,9.68
2022-12-14T04:18:59.498Z,8.68
2022-12-14T04:21:26.478Z,8.77
2022-12-14T04:23:52.708Z,7.90
2022-12-14T04:26:18.844Z,9.35
2022-12-14T04:28:45.003Z,8.80
2022-12-14T04:31:11.158Z,9.40
2022-12-14T04:33:37.275Z,8.98
2022-12-14T04:36:03.416Z,8.73
2022-12-14T04:38:29.526Z,9.30
2022-12-14T04:40:55.642Z,9.25
2022-12-14T04:43:21.782Z,9.20
2022-12-14T04:45:47.974Z,9.43
2022-12-14T04:48:14.168Z,9.13
2022-12-14T04:50:40.269Z,9.13
2022-12-14T04:53:06.404Z,8.52
2022-12-14T04:55:32.507Z,9.43
2022-12-14T04:57:58.684Z,9.57
2022-12-14T05:00:24.792Z,9.68
2022-12-14T05:02:50.967Z,9.52
2022-12-14T05:05:17.137Z,9.45
2022-12-14T05:07:43.251Z,9.48
2022-12-14T05:10:14.760Z,9.40
2022-12-14T05:12:40.906Z,8.73
2022-12-14T05:15:07.021Z,9.63
2022-12-14T05:17:33.147Z,9.30
2022-12-14T05:19:59.244Z,9.02
2022-12-14T05:22:25.341Z,9.25
2022-12-14T05:24:51.474Z,10.05
2022-12-14T05:27:17.586Z,8.80
2022-12-14T05:29:43.704Z,9.43
2022-12-14T05:32:09.813Z,8.65
2022-12-14T05:34:35.943Z,9.40
2022-12-14T05:37:02.089Z,9.40
2022-12-14T05:39:28.238Z,10.02
2022-12-14T05:41:54.335Z,10.23
2022-12-14T05:44:20.457Z,10.50
2022-12-14T05:46:46.561Z,9.77
2022-12-14T05:49:12.680Z,9.02
2022-12-14T05:51:38.791Z,8.93
2022-12-14T05:54:04.905Z,9.45
2022-12-14T05:56:31.014Z,10.02
2022-12-14T05:58:57.172Z,9.57
2022-12-14T06:01:23.358Z,9.82
2022-12-14T06:03:49.557Z,10.32
2022-12-14T06:06:15.695Z,9.35
2022-12-14T06:08:41.808Z,9.43
2022-12-14T06:11:07.953Z,9.57
2022-12-14T06:13:34.066Z,9.60
2022-12-14T06:16:00.263Z,10.50
2022-12-14T06:18:26.442Z,10.10
2022-12-14T06:20:52.552Z,10.43
2022-12-14T06:23:18.673Z,8.95
2022-12-14T06:25:44.785Z,10.07
2022-12-14T06:28:10.887Z,10.05
2022-12-14T06:30:36.996Z,10.07
2022-12-14T06:33:03.128Z,10.48
2022-12-14T06:35:29.235Z,10.48
2022-12-14T06:37:55.344Z,9.32
2022-12-14T06:40:21.499Z,10.13
2022-12-14T06:42:47.601Z,9.80
2022-12-14T06:45:13.724Z,10.18
2022-12-14T06:47:39.826Z,10.15
2022-12-14T06:50:05.940Z,10.70
2022-12-14T06:52:32.057Z,10.88
2022-12-14T06:54:58.167Z,10.70
2022-12-14T06:57:24.321Z,10.73
2022-12-14T06:59:50.486Z,9.60
2022-12-14T07:02:16.835Z,10.13
2022-12-14T07:04:43.107Z,10.00
2022-12-14T07:07:09.234Z,10.18
2022-12-14T07:09:35.376Z,10.35
2022-12-14T07:12:01.498Z,11.85
2022-12-14T07:14:27.646Z,10.70
2022-12-14T07:16:53.768Z,11.10
2022-12-14T07:19:19.902Z,11.13
2022-12-14T07:21:46.044Z,11.40
2022-12-14T07:24:12.177Z,10.05
2022-12-14T07:26:38.349Z,10.80
2022-12-14T07:29:04.482Z,10.98
2022-12-14T07:31:30.721Z,10.88
2022-12-14T07:33:56.923Z,11.30
2022-12-14T07:36:23.038Z,11.23
2022-12-14T07:38:49.168Z,11.07
2022-12-14T07:41:20.366Z,10.48
2022-12-14T07:43:49.618Z,11.23
2022-12-14T07:46:16.326Z,11.20
2022-12-14T07:48:42.474Z,10.95
2022-12-14T07:51:08.589Z,10.77
2022-12-14T07:53:34.726Z,10.40
2022-12-14T07:56:00.831Z,11.27
2022-12-14T07:58:26.964Z,10.82
2022-12-14T08:00:53.215Z,10.75
2022-12-14T08:03:19.420Z,11.25
2022-12-14T08:05:45.538Z,10.23
2022-12-14T08:08:11.661Z,10.70
2022-12-14T08:10:40.530Z,10.38
2022-12-14T08:13:06.830Z,11.32
2022-12-14T08:15:32.928Z,10.80
2022-12-14T08:17:59.092Z,11.48
2022-12-14T08:20:25.197Z,10.38
2022-12-14T08:23:02.034Z,10.48
2022-12-14T08:25:38.957Z,10.00
2022-12-14T08:30:48.793Z,11.20
2022-12-14T08:33:15.630Z,11.30
2022-12-14T08:35:41.849Z,10.98
2022-12-14T08:38:08.004Z,10.70
2022-12-14T08:40:34.130Z,11.40
2022-12-14T08:43:00.256Z,11.07
2022-12-14T08:45:26.424Z,9.88
2022-12-14T08:47:52.532Z,9.85
2022-12-14T08:50:18.653Z,10.05
2022-12-14T08:52:44.764Z,10.80
2022-12-14T08:55:10.892Z,10.98
2022-12-14T08:57:37.006Z,11.23
2022-12-14T09:00:03.381Z,11.85
2022-12-14T09:02:29.716Z,10.82
2022-12-14T09:04:55.927Z,11.40
2022-12-14T09:07:22.028Z,10.90
2022-12-14T09:09:48.149Z,10.68
2022-12-14T09:12:14.253Z,10.40
2022-12-14T09:14:40.393Z,10.57
2022-12-14T09:17:06.509Z,11.27
2022-12-14T09:19:32.613Z,10.02
2022-12-14T09:21:58.803Z,10.68
2022-12-14T09:24:24.913Z,10.88
2022-12-14T09:26:51.061Z,11.13
2022-12-14T09:29:17.687Z,10.52
2022-12-14T09:31:43.875Z,9.88
2022-12-14T09:34:10.052Z,11.43
2022-12-14T09:36:36.177Z,11.15
2022-12-14T09:39:02.281Z,11.15
2022-12-14T09:41:28.402Z,11.10
2022-12-14T09:43:54.510Z,10.88
2022-12-14T09:46:20.677Z,12.23
2022-12-14T09:48:46.806Z,12.25
2022-12-14T09:51:13.039Z,10.77
2022-12-14T09:53:39.177Z,11.35
2022-12-14T09:56:05.300Z,11.13
2022-12-14T09:58:31.700Z,10.38
2022-12-14T10:00:58.138Z,11.70
2022-12-14T10:03:24.361Z,10.77
2022-12-14T10:05:50.652Z,11.10
2022-12-14T10:08:16.766Z,10.75
2022-12-14T10:10:42.882Z,10.60
2022-12-14T10:13:09.009Z,10.30
2022-12-14T10:15:35.114Z,10.88
2022-12-14T10:18:01.257Z,11.20
2022-12-14T10:20:27.354Z,10.77
2022-12-14T10:22:53.502Z,11.35
2022-12-14T10:25:19.597Z,10.80
2022-12-14T10:28:09.844Z,9.60
2022-12-14T10:30:31.804Z,10.75
2022-12-14T10:32:57.924Z,10.50
2022-12-14T10:35:24.022Z,10.70
2022-12-14T10:37:50.142Z,10.70
2022-12-14T10:40:27.456Z,11.05
2022-12-14T10:42:58.970Z,11.10
2022-12-14T10:45:41.531Z,11.43
2022-12-14T10:48:08.383Z,10.80
2022-12-14T10:50:34.488Z,10.48
2022-12-14T10:53:00.608Z,11.20
2022-12-14T10:55:26.729Z,10.80
2022-12-14T10:57:52.883Z,11.15
2022-12-14T11:00:26.117Z,10.75
2022-12-14T11:02:52.370Z,10.20
2022-12-14T11:05:18.603Z,10.73
2022-12-14T11:07:44.847Z,10.07
2022-12-14T11:10:11.004Z,10.13
2022-12-14T11:12:37.117Z,11.18
2022-12-14T11:15:03.260Z,10.45
2022-12-14T11:17:29.432Z,10.68
2022-12-14T11:19:55.731Z,10.05
2022-12-14T11:22:22.630Z,10.70
2022-12-14T11:24:48.927Z,11.75
2022-12-14T11:27:15.066Z,10.65
2022-12-14T11:29:41.222Z,10.68
2022-12-14T11:32:07.436Z,11.07
2022-12-14T11:34:33.594Z,10.57
2022-12-14T11:36:59.704Z,9.98
2022-12-14T11:39:25.812Z,10.50
2022-12-14T11:41:51.935Z,10.63
2022-12-14T11:44:18.094Z,10.27
2022-12-14T11:46:44.876Z,11.82
2022-12-14T11:49:11.316Z,11.18
2022-12-14T11:51:37.440Z,10.98
2022-12-14T11:54:03.549Z,10.27
2022-12-14T11:56:29.683Z,11.15
2022-12-14T11:58:55.783Z,10.13
2022-12-14T12:01:21.962Z,11.02
2022-12-14T12:03:48.251Z,10.30
2022-12-14T12:06:14.430Z,10.25
2022-12-14T12:08:40.540Z,10.60
2022-12-14T12:11:06.697Z,9.85
2022-12-14T12:13:32.806Z,10.02
2022-12-14T12:15:59.003Z,11.00
2022-12-14T12:18:25.140Z,11.02
2022-12-14T12:20:51.272Z,10.80
2022-12-14T12:23:17.399Z,10.27
2022-12-14T12:25:43.606Z,10.75
2022-12-14T12:28:09.715Z,11.57
2022-12-14T12:30:35.831Z,12.57
2022-12-14T12:33:01.963Z,11.98
2022-12-14T12:35:28.067Z,10.95
2022-12-14T12:37:54.191Z,11.82
2022-12-14T12:40:20.293Z,11.20
2022-12-14T12:42:46.413Z,10.90
2022-12-14T12:45:12.519Z,11.60
2022-12-14T12:47:47.036Z,10.88
2022-12-14T12:50:13.990Z,12.05
2022-12-14T12:52:40.112Z,11.00
2022-12-14T12:55:06.210Z,11.63
2022-12-14T12:57:32.330Z,12.32
2022-12-14T12:59:58.440Z,11.90
2022-12-14T13:02:24.801Z,10.73
2022-12-14T13:04:52.914Z,11.32
2022-12-14T13:07:19.168Z,12.32
2022-12-14T13:09:45.269Z,12.25
2022-12-14T13:12:11.402Z,11.52
2022-12-14T13:14:37.530Z,11.02
2022-12-14T13:17:03.652Z,12.77
2022-12-14T13:19:50.293Z,12.27
2022-12-14T13:22:15.920Z,12.07
2022-12-14T13:24:42.027Z,12.05
2022-12-14T13:27:12.284Z,12.10
2022-12-14T13:29:43.134Z,11.73
2022-12-14T13:32:09.457Z,12.52
2022-12-14T13:34:35.556Z,11.98
2022-12-14T13:37:01.669Z,13.02
2022-12-14T13:39:27.813Z,11.93
2022-12-14T13:41:53.929Z,12.30
2022-12-14T13:44:20.202Z,12.25
2022-12-14T13:46:46.366Z,13.48
2022-12-14T13:49:12.484Z,12.48
2022-12-14T13:51:38.613Z,12.43
2022-12-14T13:54:04.713Z,12.98
2022-12-14T13:56:33.221Z,12.85
2022-12-14T13:58:59.792Z,12.85
2022-12-14T14:01:25.942Z,11.80
2022-12-14T14:03:52.256Z,12.15
2022-12-14T14:06:18.652Z,12.88
2022-12-14T14:08:45.296Z,12.48
2022-12-14T14:11:35.862Z,12.90
2022-12-14T14:13:57.789Z,14.02
2022-12-14T14:16:28.743Z,16.75
2022-12-14T14:18:55.349Z,12.68
2022-12-14T14:21:21.495Z,13.07
2022-12-14T14:23:47.644Z,12.63
2022-12-14T14:26:13.764Z,13.13
2022-12-14T14:28:39.900Z,13.25
2022-12-14T14:31:06.104Z,14.00
2022-12-14T14:33:48.697Z,13.48
2022-12-14T14:36:15.441Z,13.13
2022-12-14T14:38:41.571Z,13.93
2022-12-14T14:41:16.442Z,12.93
2022-12-14T14:43:42.949Z,13.40
2022-12-14T14:46:19.149Z,14.82
2022-12-14T14:48:48.464Z,15.27
2022-12-14T14:51:14.615Z,14.07
2022-12-14T14:53:40.731Z,15.18
2022-12-14T14:56:06.918Z,15.38
2022-12-14T14:58:33.572Z,15.65
2022-12-14T15:01:00.171Z,15.70
2022-12-14T15:03:26.324Z,17.80
2022-12-14T15:05:52.461Z,15.63
2022-12-14T15:08:18.597Z,15.68
2022-12-14T15:10:44.703Z,14.43
2022-12-14T15:13:10.866Z,15.70
2022-12-14T15:15:36.983Z,15.20
2022-12-14T15:18:03.143Z,15.70
2022-12-14T15:20:29.270Z,16.02
2022-12-14T15:22:55.376Z,14.77
2022-12-14T15:25:21.498Z,14.68
2022-12-14T15:27:47.637Z,15.23
2022-12-14T15:30:13.753Z,14.73
2022-12-14T15:32:44.324Z,15.32
2022-12-14T15:35:13.702Z,15.02
2022-12-14T15:37:39.822Z,15.38
2022-12-14T15:40:05.950Z,15.80
2022-12-14T15:42:32.078Z,16.23
2022-12-14T15:44:58.176Z,14.82
2022-12-14T15:47:24.290Z,15.70
2022-12-14T15:49:53.352Z,15.27
2022-12-14T15:52:23.779Z,15.52
2022-12-14T15:54:49.890Z,14.85
2022-12-14T15:57:16.046Z,15.15
2022-12-14T15:59:42.165Z,14.70
2022-12-14T16:02:08.416Z,16.92
2022-12-14T16:04:34.685Z,15.23
2022-12-14T16:07:07.859Z,15.73
2022-12-14T16:12:01.174Z,15.10
2022-12-14T16:14:27.303Z,16.17
2022-12-14T16:16:53.464Z,16.08
2022-12-14T16:19:27.066Z,16.23
2022-12-14T16:21:53.710Z,16.23
2022-12-14T16:24:20.335Z,16.27
2022-12-14T16:26:46.448Z,17.35
2022-12-14T16:29:12.554Z,17.70
2022-12-14T16:31:38.775Z,19.83
2022-12-14T16:34:04.965Z,19.00
2022-12-14T16:36:31.065Z,16.58
2022-12-14T16:38:57.178Z,15.50
2022-12-14T16:41:23.305Z,14.15
2022-12-14T16:43:49.401Z,14.00
2022-12-14T16:46:15.595Z,14.95
2022-12-14T16:48:41.707Z,14.65
2022-12-14T16:51:15.935Z,13.93
2022-12-14T16:53:43.800Z,15.27
2022-12-14T16:56:09.898Z,13.73
2022-12-14T16:58:36.059Z,15.30
2022-12-14T17:01:02.190Z,14.52
2022-12-14T17:03:28.798Z,15.65
2022-12-14T17:05:55.217Z,16.55
2022-12-14T17:08:21.317Z,13.77
2022-12-14T17:10:47.449Z,14.55
2022-12-14T17:13:13.546Z,12.93
2022-12-14T17:15:39.659Z,13.57
2022-12-14T17:18:05.787Z,13.50
2022-12-14T17:20:31.964Z,14.10
2022-12-14T17:22:58.083Z,13.57
2022-12-14T17:25:24.200Z,14.80
2022-12-14T17:27:50.343Z,13.15
2022-12-14T17:30:16.494Z,13.15
2022-12-14T17:32:42.604Z,13.10
2022-12-14T17:35:08.709Z,13.25
2022-12-14T17:37:36.741Z,13.23
2022-12-14T17:40:02.980Z,12.80
2022-12-14T17:42:29.099Z,14.38
2022-12-14T17:44:55.204Z,13.60
2022-12-14T17:47:21.342Z,15.27
2022-12-14T17:49:47.492Z,13.48
2022-12-14T17:52:13.624Z,13.73
2022-12-14T17:54:39.757Z,12.68
2022-12-14T17:57:05.884Z,13.32
2022-12-14T17:59:31.991Z,12.43
2022-12-14T18:01:58.227Z,13.13
2022-12-14T18:04:24.404Z,12.70
2022-12-14T18:06:50.541Z,12.75
2022-12-14T18:09:16.658Z,13.70
2022-12-14T18:12:14.003Z,13.93
2022-12-14T18:14:28.998Z,14.13
2022-12-14T18:16:55.149Z,12.88
2022-12-14T18:19:21.261Z,13.20
2022-12-14T18:21:47.387Z,14.80
2022-12-14T18:24:15.600Z,14.82
2022-12-14T18:26:41.748Z,13.35
2022-12-14T18:29:07.903Z,14.90
2022-12-14T18:31:34.069Z,14.25
2022-12-14T18:34:00.276Z,14.10
2022-12-14T18:36:26.380Z,14.15
2022-12-14T18:38:52.507Z,14.40
2022-12-14T18:41:19.549Z,14.13
2022-12-14T18:43:45.687Z,14.57
2022-12-14T18:46:11.855Z,15.10
2022-12-14T18:48:37.995Z,14.02
2022-12-14T18:51:04.128Z,14.20
2022-12-14T18:53:30.652Z,13.98
2022-12-14T18:55:57.209Z,14.52
2022-12-14T18:58:23.422Z,13.35
2022-12-14T19:00:49.577Z,13.48
2022-12-14T19:03:15.820Z,12.48
2022-12-14T19:05:42.008Z,13.15
2022-12-14T19:08:08.194Z,13.05
2022-12-14T19:10:34.420Z,13.18
2022-12-14T19:13:00.550Z,11.93
2022-12-14T19:15:26.678Z,11.98
2022-12-14T19:17:52.923Z,11.18
2022-12-14T19:20:19.062Z,10.80
2022-12-14T19:22:45.188Z,11.02
2022-12-14T19:25:11.336Z,10.55
2022-12-14T19:28:19.988Z,10.68
2022-12-14T19:30:23.615Z,10.18
2022-12-14T19:32:49.781Z,10.55
2022-12-14T19:35:15.971Z,10.05
2022-12-14T19:37:42.109Z,9.75
2022-12-14T19:40:13.376Z,9.70
2022-12-14T19:42:40.025Z,9.95
2022-12-14T19:45:06.204Z,9.68
2022-12-14T19:47:32.363Z,10.20
2022-12-14T19:49:58.547Z,9.25
2022-12-14T19:52:24.797Z,10.13
2022-12-14T19:54:50.976Z,9.65
2022-12-14T19:57:17.162Z,9.93
2022-12-14T19:59:43.364Z,10.10
2022-12-14T20:02:09.635Z,10.30
2022-12-14T20:04:35.846Z,10.50
2022-12-14T20:07:02.002Z,10.05
2022-12-14T20:09:28.170Z,10.77
2022-12-14T20:11:55.170Z,10.10
2022-12-14T20:14:21.344Z,10.07
2022-12-14T20:16:47.616Z,9.82
2022-12-14T20:19:13.929Z,9.30
2022-12-14T20:24:15.191Z,8.27
2022-12-14T20:26:41.340Z,8.45
2022-12-14T20:29:07.571Z,7.85
2022-12-14T20:31:33.814Z,7.00
2022-12-14T20:34:00.048Z,6.95
2022-12-14T20:36:26.265Z,6.95
2022-12-14T20:38:52.387Z,6.10
2022-12-14T20:41:18.625Z,5.57
2022-12-14T20:43:44.762Z,6.70
2022-12-14T20:46:10.930Z,6.15
2022-12-14T20:48:37.092Z,6.15
2022-12-14T20:51:03.244Z,5.82
2022-12-14T20:53:29.770Z,6.18
2022-12-14T20:55:56.281Z,5.95
2022-12-14T20:58:22.389Z,5.78
2022-12-14T21:00:48.599Z,6.40
2022-12-14T21:03:15.205Z,6.32
2022-12-14T21:05:41.510Z,6.22
2022-12-14T21:08:07.613Z,6.20
2022-12-14T21:10:33.755Z,5.30
2022-12-14T21:13:02.947Z,5.97
2022-12-14T21:15:33.477Z,5.80
2022-12-14T21:17:59.585Z,6.15
2022-12-14T21:20:25.693Z,6.90
2022-12-14T21:22:51.836Z,7.13
2022-12-14T21:25:17.949Z,6.28
2022-12-14T21:27:44.072Z,6.90
2022-12-14T21:30:10.185Z,7.10
2022-12-14T21:32:37.342Z,6.97
2022-12-14T21:35:03.464Z,6.40
2022-12-14T21:37:29.581Z,6.78
2022-12-14T21:39:56.058Z,7.38
2022-12-14T21:42:22.248Z,6.95
2022-12-14T21:44:48.375Z,7.40
2022-12-14T21:47:14.495Z,7.72
2022-12-14T21:49:40.622Z,7.60
2022-12-14T21:52:07.633Z,6.60
2022-12-14T21:54:34.016Z,7.57
2022-12-14T21:57:00.136Z,6.95
2022-12-14T21:59:26.244Z,7.03
2022-12-14T22:01:52.505Z,6.57
2022-12-14T22:04:18.810Z,6.72
2022-12-14T22:06:44.907Z,6.43
2022-12-14T22:09:11.032Z,7.05
2022-12-14T22:11:37.131Z,6.38
2022-12-14T22:14:03.249Z,7.30
2022-12-14T22:16:29.431Z,7.25
2022-12-14T22:18:55.575Z,7.35
2022-12-14T22:21:21.697Z,8.32
2022-12-14T22:23:47.810Z,7.15
2022-12-14T22:26:13.920Z,6.85
2022-12-14T22:28:40.032Z,6.45
2022-12-14T22:31:06.132Z,7.38
2022-12-14T22:33:32.670Z,6.63
2022-12-14T22:35:59.105Z,6.50
2022-12-14T22:38:25.220Z,7.55
2022-12-14T22:40:51.334Z,6.75
2022-12-14T22:43:17.431Z,7.43
2022-12-14T22:45:43.597Z,6.97
2022-12-14T22:48:09.708Z,7.10
2022-12-14T22:50:35.823Z,7.53
2022-12-14T22:53:01.921Z,7.60
2022-12-14T22:55:28.012Z,7.47
2022-12-14T22:57:54.137Z,8.25
2022-12-14T23:00:20.245Z,7.78
2022-12-14T23:02:48.311Z,8.00
2022-12-14T23:05:14.974Z,6.90
2022-12-14T23:07:41.083Z,8.85
2022-12-14T23:10:07.262Z,8.98
2022-12-14T23:12:33.360Z,7.65
2022-12-14T23:14:59.459Z,8.13
2022-12-14T23:17:25.598Z,7.82
2022-12-14T23:19:51.711Z,8.10
2022-12-14T23:22:17.828Z,7.82
2022-12-14T23:24:43.933Z,8.02
2022-12-14T23:27:10.218Z,8.20
2022-12-14T23:29:36.350Z,7.93
2022-12-14T23:32:02.461Z,8.77
2022-12-14T23:34:28.559Z,8.75
2022-12-14T23:36:54.690Z,9.20
2022-12-14T23:39:20.813Z,9.25
2022-12-14T23:41:46.957Z,9.20
2022-12-14T23:44:13.078Z,9.13
2022-12-14T23:46:39.254Z,8.88
2022-12-14T23:49:09.232Z,8.43
2022-12-14T23:51:38.113Z,9.48
2022-12-14T23:54:04.214Z,8.80
2022-12-14T23:56:30.336Z,8.63
2022-12-14T23:58:56.474Z,8.68
